Aérodrome :
LOGIN :

S'inscrire | Disclaimer

   EN    FR    IT 

 










Légende :    VFR   VFR Marginal   IFR   IFR Intensif   IFR Très Intensif
Visi : 
Plafond : 
>= 8 km
>= 3000ft
5 à 8 km
1000 à 3000 ft
1500m à 5 km
500 à 1000 ft
800 à 1500m
200 à 500 ft
< 800m
< 200 ft
Symboles :   Orages  Brouillard  Fortes neiges  Fortes précipitations  Vent > 20 kt
SIGMETs :   Divers  Orages  Givrage  Turbulence  Onde Orograph.  Cendres Volcan.







- Altitude de l'aérodrome : 456 ft
- Code IATA : QPZ


LIMS - San Damiano Air Base Piacenza

DERNIER METAR :
  • 181655Z 15002KT 8000 TS FEW020CB SCT025 BKN060 22/21 Q1014

METARs EXPIRÉS :
  • 181614Z 15009KT 8000 -TSRA FEW020CB SCT025 23/21 Q1013 RMK BKN VIS MIN 8000 WIND THR30 12008KT BLU
  • 181555Z 10010KT 8000 SCT025 SCT070 25/23 Q1013 RMK BKN VIS MIN 8000 WIND THR30 10013KT BLU
  • 181455Z 12007KT 8000 SCT030 SCT070 27/22 Q1013 RMK BKN VIS MIN 8000 WIND THR30 08005KT BLU

Prévision TAF périmée.
Pas de NOTAMs connus pour ce terrain.



MET'MAP, la Météo Aéronautique d'un coup d'oeil ! - Copyright ORBIFLY Décembre 2007 - Disclaimer

ORBIFLY MET'MAP TEAM :

Programmation & Développement : Alexandra Zaïnal
Conception & Développement : Baudouin d'Aumeries
Co-Programmation & Développement : Marc-Olivier Méhu
Soutien technique & logistique : Manuel Goepfert

Contact : metmap@orbifly.com




SOURCES & CREDITS :

   NOAA